createdAt,value
2022-12-03T00:00:43.715Z,16
2022-12-03T00:01:45.929Z,16.1
2022-12-03T00:02:48.632Z,16.1
2022-12-03T00:03:51.908Z,16
2022-12-03T00:04:55.984Z,16.1
2022-12-03T00:05:58.303Z,16
2022-12-03T00:07:00.508Z,16.1
2022-12-03T00:08:02.873Z,16
2022-12-03T00:09:05.798Z,16.2
2022-12-03T00:10:08.032Z,16.1
2022-12-03T00:11:10.524Z,16.1
2022-12-03T00:12:13.043Z,16
2022-12-03T00:13:15.579Z,16.1
2022-12-03T00:14:17.787Z,16.1
2022-12-03T00:15:20.259Z,16
2022-12-03T00:16:22.672Z,16.2
2022-12-03T00:17:25.217Z,16.1
2022-12-03T00:18:27.689Z,16.1
2022-12-03T00:19:29.321Z,16.1
2022-12-03T00:20:31.517Z,16.1
2022-12-03T00:21:33.997Z,16.2
2022-12-03T00:22:36.186Z,16.1
2022-12-03T00:24:43.372Z,16.2
2022-12-03T00:25:45.868Z,16.1
2022-12-03T00:26:48.417Z,16.1
2022-12-03T00:27:50.663Z,16.2
2022-12-03T00:28:53.246Z,16.1
2022-12-03T00:29:55.740Z,16.2
2022-12-03T00:30:58.114Z,16.2
2022-12-03T00:32:00.860Z,16.2
2022-12-03T00:33:03.060Z,16.2
2022-12-03T00:34:05.271Z,16.1
2022-12-03T00:35:07.748Z,16.2
2022-12-03T00:36:10.048Z,16.2
2022-12-03T00:37:12.234Z,16.2
2022-12-03T00:38:14.446Z,16.2
2022-12-03T00:39:16.958Z,16.2
2022-12-03T00:40:18.888Z,16.2
2022-12-03T00:41:21.103Z,16.2
2022-12-03T00:42:23.613Z,16.2
2022-12-03T00:43:25.830Z,16.2
2022-12-03T00:44:28.501Z,16.2
2022-12-03T00:45:30.704Z,16.2
2022-12-03T00:46:33.347Z,16.2
2022-12-03T00:47:36.060Z,16.2
2022-12-03T00:48:37.991Z,16.2
2022-12-03T00:49:40.461Z,16.2
2022-12-03T00:50:42.662Z,16.3
2022-12-03T00:51:45.129Z,16.2
2022-12-03T00:52:47.820Z,16.2
2022-12-03T00:53:50.290Z,16.2
2022-12-03T00:54:53.423Z,16.2
2022-12-03T00:55:57.161Z,16.2
2022-12-03T00:56:59.655Z,16.3
2022-12-03T00:58:01.883Z,16.2
2022-12-03T00:59:04.388Z,16.3
2022-12-03T01:00:06.927Z,16.3
2022-12-03T01:01:09.419Z,16.2
2022-12-03T01:02:12.020Z,16.2
2022-12-03T01:03:14.569Z,16.3
2022-12-03T01:04:16.716Z,16.3
2022-12-03T01:05:19.299Z,16.4
2022-12-03T01:06:21.818Z,16.3
2022-12-03T01:07:24.392Z,16.3
2022-12-03T01:08:27.129Z,16.3
2022-12-03T01:09:29.045Z,16.2
2022-12-03T01:10:31.243Z,16.3
2022-12-03T01:11:32.912Z,16.3
2022-12-03T01:12:35.103Z,16.3
2022-12-03T01:13:37.327Z,16.2
2022-12-03T01:14:39.816Z,16.3
2022-12-03T01:15:42.262Z,16.3
2022-12-03T01:16:45.035Z,16.3
2022-12-03T01:17:47.256Z,16.3
2022-12-03T01:18:49.738Z,16.3
2022-12-03T01:19:51.635Z,16.3
2022-12-03T01:20:53.851Z,16.3
2022-12-03T01:21:56.395Z,16.3
2022-12-03T01:22:58.892Z,16.2
2022-12-03T01:24:00.581Z,16.3
2022-12-03T01:25:03.087Z,16.3
2022-12-03T01:26:05.327Z,16.3
2022-12-03T01:27:07.236Z,16.3
2022-12-03T01:28:09.717Z,16.2
2022-12-03T01:29:11.957Z,16.4
2022-12-03T01:30:14.493Z,16.4
2022-12-03T01:31:17.119Z,16.3
2022-12-03T01:32:19.884Z,16.3
2022-12-03T01:33:22.504Z,16.3
2022-12-03T01:34:24.710Z,16.4
2022-12-03T01:35:27.247Z,16.3
2022-12-03T01:36:29.143Z,16.3
2022-12-03T01:37:31.357Z,16.3
2022-12-03T01:38:33.536Z,16.3
2022-12-03T01:39:35.749Z,16.3
2022-12-03T01:40:37.951Z,16.3
2022-12-03T01:41:40.435Z,16.3
2022-12-03T01:42:42.910Z,16.3
2022-12-03T01:43:45.124Z,16.3
2022-12-03T01:44:47.346Z,16.3
2022-12-03T01:45:49.854Z,16.3
2022-12-03T01:46:52.676Z,16.3
2022-12-03T01:47:55.443Z,16.3
2022-12-03T01:48:57.922Z,16.3
2022-12-03T01:50:00.132Z,16.3
2022-12-03T01:51:02.647Z,16.3
2022-12-03T01:52:05.136Z,16.3
2022-12-03T01:53:07.333Z,16.5
2022-12-03T01:54:09.826Z,16.3
2022-12-03T01:55:12.026Z,16.4
2022-12-03T01:56:14.239Z,16.4
2022-12-03T01:57:16.437Z,16.4
2022-12-03T01:58:18.919Z,16.3
2022-12-03T01:59:21.409Z,16.4
2022-12-03T02:00:23.929Z,16.4
2022-12-03T02:01:26.430Z,16.4
2022-12-03T02:02:29.253Z,16.3
2022-12-03T02:03:31.550Z,16.4
2022-12-03T02:04:33.921Z,16.4
2022-12-03T02:05:36.403Z,16.3
2022-12-03T02:06:38.893Z,16.3
2022-12-03T02:07:40.887Z,16.3
2022-12-03T02:08:43.299Z,16.3
2022-12-03T02:09:45.222Z,16.5
2022-12-03T02:10:47.138Z,16.4
2022-12-03T02:11:49.621Z,16.4
2022-12-03T02:12:52.112Z,16.3
2022-12-03T02:13:54.319Z,16.3
2022-12-03T02:14:56.757Z,16.4
2022-12-03T02:15:59.420Z,16.3
2022-12-03T02:17:02.032Z,16.4
2022-12-03T02:18:04.577Z,16.5
2022-12-03T02:19:06.495Z,16.3
2022-12-03T02:20:09.015Z,16.4
2022-12-03T02:21:11.207Z,16.4
2022-12-03T02:22:13.682Z,16.4
2022-12-03T02:23:16.168Z,16.4
2022-12-03T02:24:18.639Z,16.4
2022-12-03T02:25:21.160Z,16.4
2022-12-03T02:26:23.644Z,16.3
2022-12-03T02:27:25.851Z,16.3
2022-12-03T02:28:28.334Z,16.5
2022-12-03T02:29:30.803Z,16.4
2022-12-03T02:30:33.007Z,16.4
2022-12-03T02:31:35.654Z,16.3
2022-12-03T02:32:38.568Z,16.3
2022-12-03T02:33:40.836Z,16.3
2022-12-03T02:34:43.317Z,16.5
2022-12-03T02:35:45.504Z,16.4
2022-12-03T02:36:47.985Z,16.4
2022-12-03T02:37:50.455Z,16.3
2022-12-03T02:38:52.937Z,16.4
2022-12-03T02:39:55.436Z,16.4
2022-12-03T02:40:57.915Z,16.4
2022-12-03T02:42:00.382Z,16.4
2022-12-03T02:43:02.860Z,16.5
2022-12-03T02:44:05.067Z,16.4
2022-12-03T02:45:07.550Z,16.5
2022-12-03T02:46:09.744Z,16.5
2022-12-03T02:47:12.511Z,16.5
2022-12-03T02:48:15.208Z,16.3
2022-12-03T02:49:17.774Z,16.4
2022-12-03T02:50:20.249Z,16.5
2022-12-03T02:51:22.170Z,16.4
2022-12-03T02:52:24.372Z,16.5
2022-12-03T02:53:26.569Z,16.5
2022-12-03T02:54:28.757Z,16.3
2022-12-03T02:56:36.222Z,16.4
2022-12-03T02:57:38.720Z,16.4
2022-12-03T02:58:41.201Z,16.4
2022-12-03T02:59:42.926Z,16.4
2022-12-03T03:00:45.484Z,16.4
2022-12-03T03:01:48.275Z,16.4
2022-12-03T03:02:51.051Z,16.5
2022-12-03T03:03:53.288Z,16.5
2022-12-03T03:04:56.116Z,16.4
2022-12-03T03:05:58.636Z,16.4
2022-12-03T03:07:00.840Z,16.4
2022-12-03T03:08:03.596Z,16.5
2022-12-03T03:09:05.898Z,16.4
2022-12-03T03:10:08.103Z,16.5
2022-12-03T03:11:10.288Z,16.5
2022-12-03T03:12:12.771Z,16.4
2022-12-03T03:13:15.251Z,16.5
2022-12-03T03:14:17.738Z,16.4
2022-12-03T03:15:19.936Z,16.4
2022-12-03T03:16:22.592Z,16.4
2022-12-03T03:17:25.082Z,16.5
2022-12-03T03:18:27.052Z,16.4
2022-12-03T03:19:29.561Z,16.5
2022-12-03T03:20:32.135Z,16.4
2022-12-03T03:21:34.418Z,16.5
2022-12-03T03:22:36.907Z,16.4
2022-12-03T03:23:38.828Z,16.4
2022-12-03T03:24:40.749Z,16.4
2022-12-03T03:25:42.980Z,16.4
2022-12-03T03:26:45.458Z,16.4
2022-12-03T03:27:47.380Z,16.4
2022-12-03T03:28:49.615Z,16.4
2022-12-03T03:29:52.105Z,16.4
2022-12-03T03:30:54.308Z,16.5
2022-12-03T03:31:56.668Z,16.5
2022-12-03T03:32:58.927Z,16.6
2022-12-03T03:34:01.426Z,16.5
2022-12-03T03:35:03.948Z,16.4
2022-12-03T03:36:06.488Z,16.5
2022-12-03T03:37:08.719Z,16.5
2022-12-03T03:38:10.977Z,16.5
2022-12-03T03:39:13.158Z,16.4
2022-12-03T03:40:15.348Z,16.4
2022-12-03T03:41:17.582Z,16.5
2022-12-03T03:42:20.072Z,16.4
2022-12-03T03:43:22.579Z,16.5
2022-12-03T03:44:24.774Z,16.4
2022-12-03T03:46:31.947Z,16.5
2022-12-03T03:47:34.816Z,16.4
2022-12-03T03:48:37.297Z,16.5
2022-12-03T03:49:39.842Z,16.5
2022-12-03T03:50:42.336Z,16.4
2022-12-03T03:51:44.890Z,16.4
2022-12-03T03:52:47.075Z,16.5
2022-12-03T03:53:49.555Z,16.4
2022-12-03T03:54:52.091Z,16.5
2022-12-03T03:55:55.770Z,16.5
2022-12-03T03:56:57.973Z,16.5
2022-12-03T03:58:00.167Z,16.4
2022-12-03T03:59:02.635Z,16.4
2022-12-03T04:00:05.119Z,16.4
2022-12-03T04:01:07.554Z,16.5
2022-12-03T04:02:10.548Z,16.4
2022-12-03T04:03:13.023Z,16.5
2022-12-03T04:04:15.022Z,16.5
2022-12-03T04:05:17.807Z,16.5
2022-12-03T04:06:20.065Z,16.5
2022-12-03T04:07:22.604Z,16.5
2022-12-03T04:08:25.295Z,16.5
2022-12-03T04:09:26.932Z,16.4
2022-12-03T04:10:29.138Z,16.4
2022-12-03T04:11:31.630Z,16.5
2022-12-03T04:12:34.106Z,16.4
2022-12-03T04:13:36.592Z,16.4
2022-12-03T04:14:38.806Z,16.4
2022-12-03T04:15:40.991Z,16.4
2022-12-03T04:16:43.580Z,16.4
2022-12-03T04:17:45.805Z,16.5
2022-12-03T04:18:48.031Z,16.4
2022-12-03T04:19:50.230Z,16.4
2022-12-03T04:20:52.743Z,16.4
2022-12-03T04:21:54.984Z,16.4
2022-12-03T04:22:57.549Z,16.4
2022-12-03T04:24:00.035Z,16.4
2022-12-03T04:25:02.245Z,16.4
2022-12-03T04:26:04.734Z,16.3
2022-12-03T04:27:07.216Z,16.4
2022-12-03T04:28:09.690Z,16.4
2022-12-03T04:29:12.173Z,16.3
2022-12-03T04:30:14.372Z,16.4
2022-12-03T04:31:16.782Z,16.3
2022-12-03T04:32:19.280Z,16.4
2022-12-03T04:33:21.776Z,16.3
2022-12-03T04:34:23.971Z,16.3
2022-12-03T04:35:26.086Z,16.3
2022-12-03T04:36:28.561Z,16.3
2022-12-03T04:37:31.065Z,16.3
2022-12-03T04:38:33.607Z,16.3
2022-12-03T04:39:36.083Z,16.3
2022-12-03T04:40:38.579Z,16.3
2022-12-03T04:41:40.776Z,16.4
2022-12-03T04:42:43.255Z,16.3
2022-12-03T04:43:45.721Z,16.4
2022-12-03T04:44:48.210Z,16.3
2022-12-03T04:45:50.542Z,16.3
2022-12-03T04:46:53.396Z,16.3
2022-12-03T04:47:55.622Z,16.3
2022-12-03T04:48:58.136Z,16.3
2022-12-03T04:50:00.061Z,16.3
2022-12-03T04:51:02.260Z,16.3
2022-12-03T04:52:04.756Z,16.4
2022-12-03T04:53:07.261Z,16.4
2022-12-03T04:54:09.511Z,16.3
2022-12-03T04:55:12.000Z,16.3
2022-12-03T04:56:14.476Z,16.3
2022-12-03T04:57:16.966Z,16.3
2022-12-03T04:58:19.170Z,16.3
2022-12-03T04:59:21.384Z,16.3
2022-12-03T05:00:23.861Z,16.3
2022-12-03T05:01:26.220Z,16.2
2022-12-03T05:02:29.175Z,16.3
2022-12-03T05:03:31.641Z,16.3
2022-12-03T05:04:34.128Z,16.3
2022-12-03T05:05:36.346Z,16.2
2022-12-03T05:06:38.266Z,16.3
2022-12-03T05:07:40.906Z,16.3
2022-12-03T05:08:43.418Z,16.3
2022-12-03T05:09:45.989Z,16.3
2022-12-03T05:10:48.474Z,16.3
2022-12-03T05:11:50.673Z,16.3
2022-12-03T05:12:52.870Z,16.2
2022-12-03T05:13:55.090Z,16.2
2022-12-03T05:14:57.484Z,16.3
2022-12-03T05:15:59.687Z,16.2
2022-12-03T05:17:02.273Z,16.3
2022-12-03T05:18:04.996Z,16.2
2022-12-03T05:19:07.465Z,16.2
2022-12-03T05:20:10.524Z,16.3
2022-12-03T05:21:12.714Z,16.3
2022-12-03T05:22:14.921Z,16.3
2022-12-03T05:23:17.180Z,16.3
2022-12-03T05:24:19.691Z,16.3
2022-12-03T05:25:22.232Z,16.3
2022-12-03T05:26:24.457Z,16.3
2022-12-03T05:27:26.928Z,16.3
2022-12-03T05:28:29.409Z,16.3
2022-12-03T05:29:31.899Z,16.2
2022-12-03T05:30:34.234Z,16.3
2022-12-03T05:31:36.746Z,16.3
2022-12-03T05:32:38.395Z,16.2
2022-12-03T05:34:45.862Z,16.2
2022-12-03T05:35:48.346Z,16.2
2022-12-03T05:36:50.816Z,16.2
2022-12-03T05:37:52.465Z,16.2
2022-12-03T05:38:54.977Z,16.3
2022-12-03T05:39:57.212Z,16.3
2022-12-03T05:40:59.450Z,16.2
2022-12-03T05:42:01.930Z,16.3
2022-12-03T05:43:04.131Z,16.3
2022-12-03T05:44:06.617Z,16.2
2022-12-03T05:45:08.539Z,16.3
2022-12-03T05:46:11.652Z,16.2
2022-12-03T05:47:14.533Z,16.3
2022-12-03T05:48:17.033Z,16.3
2022-12-03T05:49:19.242Z,16.3
2022-12-03T05:50:21.727Z,16.1
2022-12-03T05:51:23.926Z,16.2
2022-12-03T05:52:26.123Z,16.2
2022-12-03T05:53:28.324Z,16.2
2022-12-03T05:54:30.824Z,16.2
2022-12-03T05:55:33.029Z,16.2
2022-12-03T05:56:35.582Z,16.2
2022-12-03T05:57:37.797Z,16.2
2022-12-03T05:58:39.709Z,16.3
2022-12-03T05:59:42.177Z,16.2
2022-12-03T06:00:44.652Z,16.3
2022-12-03T06:01:46.843Z,16.2
2022-12-03T06:02:49.611Z,16.3
2022-12-03T06:03:52.810Z,16.2
2022-12-03T06:04:56.047Z,16.3
2022-12-03T06:05:58.711Z,16.2
2022-12-03T06:07:00.930Z,16.2
2022-12-03T06:08:03.646Z,16.3
2022-12-03T06:09:06.215Z,16.2
2022-12-03T06:10:08.825Z,16.2
2022-12-03T06:11:11.326Z,16.2
2022-12-03T06:12:13.592Z,16.2
2022-12-03T06:13:15.802Z,16.2
2022-12-03T06:14:18.002Z,16.2
2022-12-03T06:15:19.941Z,16.2
2022-12-03T06:16:22.656Z,16.2
2022-12-03T06:17:25.503Z,16.2
2022-12-03T06:18:27.979Z,16.2
2022-12-03T06:19:30.471Z,16.3
2022-12-03T06:20:32.660Z,16.2
2022-12-03T06:21:35.163Z,16.3
2022-12-03T06:22:37.627Z,16.3
2022-12-03T06:23:39.565Z,16.2
2022-12-03T06:24:42.037Z,16.3
2022-12-03T06:25:44.562Z,16.2
2022-12-03T06:26:47.077Z,16.2
2022-12-03T06:27:49.677Z,16.2
2022-12-03T06:28:51.886Z,16.2
2022-12-03T06:29:53.854Z,16.3
2022-12-03T06:30:56.544Z,16.3
2022-12-03T06:31:59.177Z,16.2
2022-12-03T06:33:01.673Z,16.2
2022-12-03T06:34:03.881Z,16.2
2022-12-03T06:35:06.070Z,16.3
2022-12-03T06:36:08.540Z,16.2
2022-12-03T06:37:10.468Z,16.2
2022-12-03T06:38:12.934Z,16.2
2022-12-03T06:39:15.443Z,16.2
2022-12-03T06:40:17.675Z,16.2
2022-12-03T06:41:19.911Z,16.2
2022-12-03T06:42:21.853Z,16.2
2022-12-03T06:43:24.407Z,16.2
2022-12-03T06:44:26.876Z,16.2
2022-12-03T06:45:29.371Z,16.2
2022-12-03T06:46:32.038Z,16.2
2022-12-03T06:47:34.863Z,16.2
2022-12-03T06:48:37.076Z,16.2
2022-12-03T06:49:39.560Z,16.2
2022-12-03T06:50:42.030Z,16.3
2022-12-03T06:51:44.549Z,16.2
2022-12-03T06:52:47.054Z,16.2
2022-12-03T06:53:49.549Z,16.2
2022-12-03T06:54:52.743Z,16.2
2022-12-03T06:55:56.047Z,16.1
2022-12-03T06:56:58.548Z,16.2
2022-12-03T06:58:01.061Z,16.1
2022-12-03T06:59:03.595Z,16.2
2022-12-03T07:00:05.807Z,16.2
2022-12-03T07:01:07.732Z,16.2
2022-12-03T07:02:10.568Z,16.2
2022-12-03T07:03:13.560Z,16.2
2022-12-03T07:04:15.279Z,16.2
2022-12-03T07:05:17.755Z,16.1
2022-12-03T07:06:20.049Z,16.2
2022-12-03T07:07:22.516Z,16.2
2022-12-03T07:08:24.721Z,16.3
2022-12-03T07:09:26.652Z,16.2
2022-12-03T07:10:28.975Z,16.2
2022-12-03T07:11:31.292Z,16.2
2022-12-03T07:12:33.847Z,16.2
2022-12-03T07:13:36.055Z,16.1
2022-12-03T07:14:38.608Z,16.2
2022-12-03T07:15:41.015Z,16.2
2022-12-03T07:16:44.361Z,16.1
2022-12-03T07:17:47.051Z,16.2
2022-12-03T07:18:49.547Z,16.2
2022-12-03T07:19:52.018Z,16.1
2022-12-03T07:20:54.508Z,16.2
2022-12-03T07:21:56.722Z,16.1
2022-12-03T07:22:59.203Z,16.2
2022-12-03T07:24:01.424Z,16.2
2022-12-03T07:25:03.616Z,16.2
2022-12-03T07:26:06.099Z,16.3
2022-12-03T07:27:08.318Z,16.2
2022-12-03T07:28:10.826Z,16.2
2022-12-03T07:29:13.583Z,16.2
2022-12-03T07:30:16.171Z,16.2
2022-12-03T07:31:18.789Z,16.2
2022-12-03T07:32:21.682Z,16.1
2022-12-03T07:33:23.904Z,16.2
2022-12-03T07:34:26.377Z,16.2
2022-12-03T07:35:28.851Z,16.1
2022-12-03T07:36:31.326Z,16.1
2022-12-03T07:37:33.528Z,16.2
2022-12-03T07:38:36.078Z,16.2
2022-12-03T07:39:38.271Z,16.1
2022-12-03T07:40:40.746Z,16.2
2022-12-03T07:41:42.382Z,16.1
2022-12-03T07:42:44.867Z,16.2
2022-12-03T07:43:47.101Z,16.2
2022-12-03T07:44:49.621Z,16.1
2022-12-03T07:45:53.050Z,16.1
2022-12-03T07:46:55.356Z,16.1
2022-12-03T07:47:57.877Z,16.2
2022-12-03T07:49:00.088Z,16.2
2022-12-03T07:50:02.589Z,16.1
2022-12-03T07:51:04.838Z,16.2
2022-12-03T07:52:07.320Z,16.2
2022-12-03T07:53:09.530Z,16.2
2022-12-03T07:54:11.733Z,16.2
2022-12-03T07:55:14.230Z,16.2
2022-12-03T07:56:16.431Z,16.1
2022-12-03T07:57:18.641Z,16.2
2022-12-03T07:58:20.834Z,16.2
2022-12-03T07:59:23.057Z,16.2
2022-12-03T08:00:25.009Z,16.2
2022-12-03T08:01:27.862Z,16.2
2022-12-03T08:02:30.903Z,16.1
2022-12-03T08:03:33.432Z,16.2
2022-12-03T08:04:35.920Z,16.2
2022-12-03T08:05:38.437Z,16.2
2022-12-03T08:06:40.923Z,16.2
2022-12-03T08:07:42.957Z,16.1
2022-12-03T08:08:45.630Z,16.1
2022-12-03T08:09:48.116Z,16.3
2022-12-03T08:10:50.587Z,16.2
2022-12-03T08:11:52.803Z,16.2
2022-12-03T08:12:55.273Z,16.3
2022-12-03T08:13:57.789Z,16.2
2022-12-03T08:15:00.289Z,16.2
2022-12-03T08:16:02.942Z,16.1
2022-12-03T08:17:05.733Z,16.2
2022-12-03T08:18:07.933Z,16.2
2022-12-03T08:19:09.873Z,16.1
2022-12-03T08:20:12.066Z,16.2
2022-12-03T08:21:14.008Z,16.1
2022-12-03T08:22:16.485Z,16.2
2022-12-03T08:23:18.984Z,16.2
2022-12-03T08:24:21.477Z,16.2
2022-12-03T08:25:24.006Z,16.1
2022-12-03T08:26:26.491Z,16.1
2022-12-03T08:27:28.716Z,16.2
2022-12-03T08:28:31.181Z,16.1
2022-12-03T08:29:33.389Z,16.2
2022-12-03T08:30:35.886Z,16.1
2022-12-03T08:31:38.000Z,16.2
2022-12-03T08:32:40.816Z,16.1
2022-12-03T08:33:42.795Z,16.1
2022-12-03T08:34:45.294Z,16.1
2022-12-03T08:35:47.785Z,16.2
2022-12-03T08:36:50.024Z,16.1
2022-12-03T08:37:52.262Z,16.1
2022-12-03T08:38:54.471Z,16.2
2022-12-03T08:39:56.958Z,16.1
2022-12-03T08:40:59.449Z,16.2
2022-12-03T08:42:01.635Z,16.1
2022-12-03T08:43:04.112Z,16.2
2022-12-03T08:44:06.054Z,16.2
2022-12-03T08:45:08.526Z,16.2
2022-12-03T08:46:11.195Z,16.1
2022-12-03T08:47:13.522Z,16.1
2022-12-03T08:48:16.087Z,16.2
2022-12-03T08:49:18.566Z,16.2
2022-12-03T08:50:21.058Z,16.2
2022-12-03T08:51:23.014Z,16.2
2022-12-03T08:52:25.498Z,16.1
2022-12-03T08:53:27.707Z,16.1
2022-12-03T08:54:30.175Z,16.1
2022-12-03T08:55:32.387Z,16.1
2022-12-03T08:56:34.871Z,16.2
2022-12-03T08:57:37.343Z,16.2
2022-12-03T08:58:39.264Z,16.1
2022-12-03T09:00:46.882Z,16.2
2022-12-03T09:01:49.669Z,16.2
2022-12-03T09:02:52.210Z,16.1
2022-12-03T09:03:54.966Z,16.1
2022-12-03T09:04:57.151Z,16.1
2022-12-03T09:05:59.376Z,16.1
2022-12-03T09:07:01.669Z,16.2
2022-12-03T09:08:04.047Z,16.2
2022-12-03T09:09:07.514Z,16.1
2022-12-03T09:10:09.449Z,16.1
2022-12-03T09:11:11.940Z,16.1
2022-12-03T09:12:13.875Z,16.2
2022-12-03T09:13:16.357Z,16.2
2022-12-03T09:14:19.593Z,16.1
2022-12-03T09:15:22.259Z,16.1
2022-12-03T09:16:24.856Z,16.2
2022-12-03T09:17:26.784Z,16.1
2022-12-03T09:18:29.017Z,16.1
2022-12-03T09:19:31.740Z,16.1
2022-12-03T09:20:33.655Z,16
2022-12-03T09:21:35.848Z,16.1
2022-12-03T09:22:38.052Z,16.1
2022-12-03T09:23:40.530Z,16.1
2022-12-03T09:24:42.181Z,16.2
2022-12-03T09:25:44.655Z,16.1
2022-12-03T09:26:47.131Z,16.1
2022-12-03T09:27:49.326Z,16.1
2022-12-03T09:28:51.834Z,16.1
2022-12-03T09:29:54.328Z,16.1
2022-12-03T09:30:56.537Z,16.1
2022-12-03T09:31:58.964Z,16.2
2022-12-03T09:33:01.607Z,16.2
2022-12-03T09:34:04.129Z,16.2
2022-12-03T09:35:06.666Z,16.1
2022-12-03T09:36:08.877Z,16.1
2022-12-03T09:37:10.811Z,16.1
2022-12-03T09:38:13.286Z,16
2022-12-03T09:39:15.796Z,16.2
2022-12-03T09:40:18.004Z,16.2
2022-12-03T09:41:20.680Z,16.1
2022-12-03T09:42:23.152Z,16.1
2022-12-03T09:44:30.049Z,16
2022-12-03T09:45:32.478Z,16.1
2022-12-03T09:46:35.384Z,16.1
2022-12-03T09:47:38.376Z,16.1
2022-12-03T09:48:40.612Z,16.1
2022-12-03T09:49:43.126Z,16.1
2022-12-03T09:50:45.666Z,16
2022-12-03T09:51:48.162Z,16.1
2022-12-03T09:52:51.181Z,16.1
2022-12-03T09:53:53.663Z,16.1
2022-12-03T09:54:56.512Z,16.1
2022-12-03T09:56:00.326Z,16.1
2022-12-03T09:57:02.539Z,16.2
2022-12-03T09:58:05.041Z,16.1
2022-12-03T09:59:06.974Z,16.1
2022-12-03T10:00:09.455Z,16.1
2022-12-03T10:01:12.098Z,16.1
2022-12-03T10:02:14.347Z,16.2
2022-12-03T10:03:16.585Z,16.1
2022-12-03T10:04:19.254Z,16
2022-12-03T10:05:21.892Z,16.2
2022-12-03T10:06:24.448Z,16.3
2022-12-03T10:07:26.605Z,16.1
2022-12-03T10:09:34.465Z,16.1
2022-12-03T10:10:36.677Z,16.1
2022-12-03T10:11:39.171Z,16.1
2022-12-03T10:12:41.399Z,16.1
2022-12-03T10:13:43.874Z,16.2
2022-12-03T10:14:45.806Z,16.1
2022-12-03T10:15:48.004Z,16.2
2022-12-03T10:16:50.081Z,16.1
2022-12-03T10:17:52.971Z,16.1
2022-12-03T10:18:55.172Z,16.1
2022-12-03T10:19:57.023Z,16.2
2022-12-03T10:20:59.273Z,16.1
2022-12-03T10:22:01.819Z,16.1
2022-12-03T10:23:04.315Z,16.1
2022-12-03T10:24:06.800Z,16
2022-12-03T10:25:09.296Z,16.1
2022-12-03T10:26:11.783Z,16
2022-12-03T10:27:14.334Z,16.1
2022-12-03T10:28:16.824Z,16.1
2022-12-03T10:29:19.042Z,16.2
2022-12-03T10:30:21.246Z,16.1
2022-12-03T10:31:23.615Z,16.1
2022-12-03T10:32:26.508Z,16.1
2022-12-03T10:33:28.721Z,16.1
2022-12-03T10:34:30.982Z,16.1
2022-12-03T10:35:33.487Z,16
2022-12-03T10:36:35.983Z,16.1
2022-12-03T10:37:38.275Z,16.2
2022-12-03T10:38:40.748Z,16
2022-12-03T10:39:42.947Z,16.1
2022-12-03T10:40:45.444Z,16.1
2022-12-03T10:41:47.716Z,16.1
2022-12-03T10:42:49.645Z,16.1
2022-12-03T10:43:51.845Z,16
2022-12-03T10:44:54.634Z,15.9
2022-12-03T10:47:02.696Z,16
2022-12-03T10:48:05.776Z,16.1
2022-12-03T10:49:08.020Z,16.1
2022-12-03T10:50:10.539Z,16.1
2022-12-03T10:51:13.033Z,16.1
2022-12-03T10:52:15.282Z,16.1
2022-12-03T10:53:23.807Z,16.1
2022-12-03T10:54:26.054Z,16.2
2022-12-03T10:55:27.969Z,16.1
2022-12-03T10:56:30.183Z,16
2022-12-03T10:57:32.667Z,16.2
2022-12-03T10:58:35.156Z,16.1
2022-12-03T10:59:37.626Z,16.1
2022-12-03T11:00:39.667Z,16.1
2022-12-03T11:01:42.302Z,16.1
2022-12-03T11:02:44.943Z,16.1
2022-12-03T11:03:51.770Z,16.1
2022-12-03T11:04:55.178Z,16.1
2022-12-03T11:05:58.053Z,16
2022-12-03T11:07:00.700Z,16
2022-12-03T11:08:03.337Z,16.1
2022-12-03T11:10:11.268Z,16
2022-12-03T11:11:13.240Z,16.1
2022-12-03T11:12:15.140Z,16.2
2022-12-03T11:13:17.366Z,16.1
2022-12-03T11:15:24.849Z,16.1
2022-12-03T11:16:26.916Z,16
2022-12-03T11:17:29.357Z,16.3
2022-12-03T11:18:31.847Z,16
2022-12-03T11:19:34.319Z,16
2022-12-03T11:20:36.527Z,16.1
2022-12-03T11:21:38.459Z,16.1
2022-12-03T11:22:40.979Z,16.2
2022-12-03T11:23:43.215Z,16.1
2022-12-03T11:24:45.748Z,16
2022-12-03T11:25:47.953Z,16.2
2022-12-03T11:26:50.455Z,16.1
2022-12-03T11:27:52.665Z,16.2
2022-12-03T11:28:54.894Z,16.1
2022-12-03T11:29:56.801Z,16
2022-12-03T11:30:59.198Z,16.1
2022-12-03T11:32:01.930Z,16
2022-12-03T11:33:03.853Z,16.1
2022-12-03T11:34:06.137Z,16.1
2022-12-03T11:35:08.630Z,16
2022-12-03T11:36:10.832Z,16.1
2022-12-03T11:37:13.317Z,16.1
2022-12-03T11:38:15.242Z,16.2
2022-12-03T11:39:17.770Z,16.1
2022-12-03T11:40:20.286Z,16.1
2022-12-03T11:41:22.767Z,16
2022-12-03T11:42:25.480Z,16.1
2022-12-03T11:43:28.090Z,15.9
2022-12-03T11:44:30.294Z,16.1
2022-12-03T11:45:32.891Z,16.2
2022-12-03T11:46:35.573Z,16
2022-12-03T11:47:38.173Z,16.1
2022-12-03T11:48:40.691Z,16.1
2022-12-03T11:49:42.638Z,16.1
2022-12-03T11:50:45.126Z,16.1
2022-12-03T11:51:47.655Z,16.1
2022-12-03T11:52:50.135Z,15.9
2022-12-03T11:53:52.337Z,16
2022-12-03T11:54:54.842Z,16.1
2022-12-03T11:57:02.074Z,16.1
2022-12-03T11:58:04.317Z,16
2022-12-03T11:59:06.244Z,15.9
2022-12-03T12:00:08.446Z,16.1
2022-12-03T12:01:10.348Z,16.1
2022-12-03T12:02:12.615Z,16
2022-12-03T12:03:15.247Z,16.1
2022-12-03T12:04:17.963Z,16
2022-12-03T12:05:20.451Z,16.1
2022-12-03T12:06:22.938Z,16
2022-12-03T12:07:25.465Z,16.1
2022-12-03T12:08:27.909Z,16
2022-12-03T12:09:30.416Z,16
2022-12-03T12:10:32.643Z,16.1
2022-12-03T12:11:35.184Z,16.1
2022-12-03T12:12:37.678Z,16
2022-12-03T12:13:40.198Z,16.1
2022-12-03T12:14:42.692Z,16
2022-12-03T12:15:45.396Z,16.1
2022-12-03T12:16:48.168Z,16.1
2022-12-03T12:17:50.370Z,16
2022-12-03T12:19:58.459Z,16
2022-12-03T12:21:02.030Z,16
2022-12-03T12:22:04.244Z,16.1
2022-12-03T12:23:06.739Z,16
2022-12-03T12:24:08.405Z,16
2022-12-03T12:25:10.622Z,15.9
2022-12-03T12:26:12.842Z,16.2
2022-12-03T12:27:15.086Z,16
2022-12-03T12:28:17.556Z,16.1
2022-12-03T12:29:19.786Z,16
2022-12-03T12:30:22.268Z,16
2022-12-03T12:31:24.868Z,16
2022-12-03T12:32:27.327Z,15.9
2022-12-03T12:33:29.553Z,16
2022-12-03T12:34:31.778Z,16
2022-12-03T12:35:34.012Z,16.1
2022-12-03T12:36:36.223Z,16.2
2022-12-03T12:37:38.708Z,15.9
2022-12-03T12:38:45.169Z,16
2022-12-03T12:39:47.700Z,16.1
2022-12-03T12:40:49.987Z,16
2022-12-03T12:41:52.512Z,16.1
2022-12-03T12:42:55.032Z,16.1
2022-12-03T12:43:57.519Z,16
2022-12-03T12:44:59.748Z,16
2022-12-03T12:47:07.398Z,16.1
2022-12-03T12:48:10.256Z,16.2
2022-12-03T12:49:12.748Z,16.1
2022-12-03T12:50:14.674Z,16.1
2022-12-03T12:51:17.156Z,16.1
2022-12-03T12:52:19.661Z,16
2022-12-03T12:53:22.151Z,16.1
2022-12-03T12:54:24.686Z,16
2022-12-03T12:55:27.156Z,16.1
2022-12-03T12:56:28.818Z,15.9
2022-12-03T12:57:31.379Z,16
2022-12-03T12:58:33.633Z,16
2022-12-03T12:59:35.546Z,16.1
2022-12-03T13:00:37.861Z,16
2022-12-03T13:01:40.882Z,16.1
2022-12-03T13:02:44.555Z,16
2022-12-03T13:03:46.962Z,16.1
2022-12-03T13:04:49.446Z,16.1
2022-12-03T13:05:51.624Z,16.1
2022-12-03T13:06:53.826Z,16
2022-12-03T13:07:56.452Z,16.1
2022-12-03T13:08:59.001Z,16
2022-12-03T13:10:00.910Z,15.9
2022-12-03T13:11:03.393Z,16.1
2022-12-03T13:12:05.895Z,16
2022-12-03T13:13:07.579Z,16.1
2022-12-03T13:14:10.095Z,16
2022-12-03T13:15:12.593Z,16.1
2022-12-03T13:16:15.154Z,16
2022-12-03T13:17:17.573Z,16
2022-12-03T13:18:20.087Z,15.9
2022-12-03T13:19:22.290Z,15.9
2022-12-03T13:20:24.506Z,16
2022-12-03T13:21:26.708Z,16
2022-12-03T13:22:30.210Z,16.1
2022-12-03T13:23:32.697Z,15.9
2022-12-03T13:24:35.201Z,16
2022-12-03T13:26:42.127Z,16
2022-12-03T13:27:44.392Z,16.1
2022-12-03T13:28:46.916Z,16.1
2022-12-03T13:29:49.438Z,16.1
2022-12-03T13:30:51.979Z,16
2022-12-03T13:31:54.092Z,15.9
2022-12-03T13:32:56.457Z,15.9
2022-12-03T13:33:58.939Z,16.1
2022-12-03T13:35:00.847Z,16
2022-12-03T13:36:03.096Z,15.9
2022-12-03T13:37:05.346Z,16
2022-12-03T13:38:07.826Z,16.1
2022-12-03T13:39:10.028Z,16
2022-12-03T13:40:12.232Z,15.9
2022-12-03T13:41:14.453Z,16
2022-12-03T13:42:16.958Z,16.1
2022-12-03T13:43:19.479Z,16
2022-12-03T13:44:21.986Z,16
2022-12-03T13:45:24.514Z,16
2022-12-03T13:46:26.788Z,16
2022-12-03T13:47:29.756Z,16
2022-12-03T13:48:31.660Z,16
2022-12-03T13:49:34.155Z,16
2022-12-03T13:50:36.673Z,16
2022-12-03T13:51:39.024Z,16
2022-12-03T13:52:41.517Z,16.1
2022-12-03T13:53:43.989Z,16
2022-12-03T13:54:46.197Z,16
2022-12-03T13:55:48.404Z,16
2022-12-03T13:56:50.879Z,15.9
2022-12-03T13:57:52.516Z,16
2022-12-03T13:58:55.022Z,16.1
2022-12-03T13:59:57.904Z,16
2022-12-03T14:01:00.563Z,16
2022-12-03T14:02:03.624Z,15.9
2022-12-03T14:03:06.390Z,16
2022-12-03T14:04:08.305Z,16
2022-12-03T14:05:10.217Z,16.1
2022-12-03T14:06:12.471Z,16.1
2022-12-03T14:07:15.013Z,16.1
2022-12-03T14:08:17.366Z,15.9
2022-12-03T14:09:20.048Z,16
2022-12-03T14:10:22.350Z,16.1
2022-12-03T14:11:24.877Z,16
2022-12-03T14:12:26.801Z,15.9